sensor_id;sensor_type;location;lat;lon;timestamp;P1;durP1;ratioP1;P2;durP2;ratioP2
38843;SDS011;24596;48.080;8.362;2022-11-20T00:01:55;6.18;;;3.17;;
38843;SDS011;24596;48.080;8.362;2022-11-20T00:04:21;6.50;;;3.40;;
38843;SDS011;24596;48.080;8.362;2022-11-20T00:06:46;6.35;;;3.33;;
38843;SDS011;24596;48.080;8.362;2022-11-20T00:09:11;8.38;;;3.67;;
38843;SDS011;24596;48.080;8.362;2022-11-20T00:11:39;6.65;;;3.03;;
38843;SDS011;24596;48.080;8.362;2022-11-20T00:14:08;6.35;;;3.45;;
38843;SDS011;24596;48.080;8.362;2022-11-20T00:16:34;8.77;;;4.13;;
38843;SDS011;24596;48.080;8.362;2022-11-20T00:18:59;7.80;;;4.05;;
38843;SDS011;24596;48.080;8.362;2022-11-20T00:21:25;8.13;;;3.72;;
38843;SDS011;24596;48.080;8.362;2022-11-20T00:23:52;6.13;;;3.33;;
38843;SDS011;24596;48.080;8.362;2022-11-20T00:26:21;7.70;;;3.85;;
38843;SDS011;24596;48.080;8.362;2022-11-20T00:28:50;7.43;;;4.20;;
38843;SDS011;24596;48.080;8.362;2022-11-20T00:31:16;8.98;;;4.15;;
38843;SDS011;24596;48.080;8.362;2022-11-20T00:33:42;7.30;;;4.00;;
38843;SDS011;24596;48.080;8.362;2022-11-20T00:36:11;6.57;;;3.30;;
38843;SDS011;24596;48.080;8.362;2022-11-20T00:38:36;6.80;;;3.25;;
38843;SDS011;24596;48.080;8.362;2022-11-20T00:41:03;6.80;;;3.47;;
38843;SDS011;24596;48.080;8.362;2022-11-20T00:43:28;6.88;;;3.45;;
38843;SDS011;24596;48.080;8.362;2022-11-20T00:46:00;6.25;;;3.65;;
38843;SDS011;24596;48.080;8.362;2022-11-20T00:48:26;7.78;;;3.47;;
38843;SDS011;24596;48.080;8.362;2022-11-20T00:50:51;8.82;;;3.25;;
38843;SDS011;24596;48.080;8.362;2022-11-20T00:53:17;5.03;;;2.80;;
38843;SDS011;24596;48.080;8.362;2022-11-20T00:55:42;5.78;;;2.75;;
38843;SDS011;24596;48.080;8.362;2022-11-20T00:58:07;4.88;;;2.47;;
38843;SDS011;24596;48.080;8.362;2022-11-20T01:00:32;5.80;;;2.50;;
38843;SDS011;24596;48.080;8.362;2022-11-20T01:02:58;6.55;;;2.45;;
38843;SDS011;24596;48.080;8.362;2022-11-20T01:05:23;6.47;;;2.42;;
38843;SDS011;24596;48.080;8.362;2022-11-20T01:07:48;8.48;;;2.60;;
38843;SDS011;24596;48.080;8.362;2022-11-20T01:10:13;4.63;;;2.42;;
38843;SDS011;24596;48.080;8.362;2022-11-20T01:12:39;4.78;;;2.10;;
38843;SDS011;24596;48.080;8.362;2022-11-20T01:15:04;4.10;;;1.98;;
38843;SDS011;24596;48.080;8.362;2022-11-20T01:17:30;4.47;;;2.28;;
38843;SDS011;24596;48.080;8.362;2022-11-20T01:19:56;6.80;;;2.33;;
38843;SDS011;24596;48.080;8.362;2022-11-20T01:22:21;4.75;;;2.03;;
38843;SDS011;24596;48.080;8.362;2022-11-20T01:24:46;5.00;;;2.28;;
38843;SDS011;24596;48.080;8.362;2022-11-20T01:27:11;4.00;;;1.85;;
38843;SDS011;24596;48.080;8.362;2022-11-20T01:29:37;4.90;;;2.83;;
38843;SDS011;24596;48.080;8.362;2022-11-20T01:32:02;5.13;;;2.40;;
38843;SDS011;24596;48.080;8.362;2022-11-20T01:34:27;4.78;;;1.92;;
38843;SDS011;24596;48.080;8.362;2022-11-20T01:36:52;4.45;;;1.75;;
38843;SDS011;24596;48.080;8.362;2022-11-20T01:39:19;4.88;;;2.20;;
38843;SDS011;24596;48.080;8.362;2022-11-20T01:41:44;4.82;;;2.15;;
38843;SDS011;24596;48.080;8.362;2022-11-20T01:47:13;4.60;;;2.15;;
38843;SDS011;24596;48.080;8.362;2022-11-20T01:49:47;5.13;;;2.70;;
38843;SDS011;24596;48.080;8.362;2022-11-20T01:52:15;6.38;;;2.70;;
38843;SDS011;24596;48.080;8.362;2022-11-20T01:55:04;8.05;;;1.73;;
38843;SDS011;24596;48.080;8.362;2022-11-20T01:57:26;3.75;;;2.20;;
38843;SDS011;24596;48.080;8.362;2022-11-20T02:00:15;7.95;;;2.25;;
38843;SDS011;24596;48.080;8.362;2022-11-20T02:02:39;4.57;;;2.30;;
38843;SDS011;24596;48.080;8.362;2022-11-20T02:07:45;4.25;;;1.92;;
38843;SDS011;24596;48.080;8.362;2022-11-20T02:10:10;4.00;;;2.30;;
38843;SDS011;24596;48.080;8.362;2022-11-20T02:12:36;4.45;;;2.03;;
38843;SDS011;24596;48.080;8.362;2022-11-20T02:15:20;3.70;;;1.75;;
38843;SDS011;24596;48.080;8.362;2022-11-20T02:17:45;4.63;;;2.05;;
38843;SDS011;24596;48.080;8.362;2022-11-20T02:20:10;4.53;;;1.77;;
38843;SDS011;24596;48.080;8.362;2022-11-20T02:22:38;4.05;;;1.88;;
38843;SDS011;24596;48.080;8.362;2022-11-20T02:25:05;5.70;;;1.80;;
38843;SDS011;24596;48.080;8.362;2022-11-20T02:27:30;3.13;;;1.42;;
38843;SDS011;24596;48.080;8.362;2022-11-20T02:30:00;4.95;;;2.10;;
38843;SDS011;24596;48.080;8.362;2022-11-20T02:32:28;6.47;;;2.13;;
38843;SDS011;24596;48.080;8.362;2022-11-20T02:34:53;3.83;;;1.75;;
38843;SDS011;24596;48.080;8.362;2022-11-20T02:37:19;3.97;;;1.92;;
38843;SDS011;24596;48.080;8.362;2022-11-20T02:39:45;3.58;;;1.90;;
38843;SDS011;24596;48.080;8.362;2022-11-20T02:42:10;3.92;;;2.13;;
38843;SDS011;24596;48.080;8.362;2022-11-20T02:44:36;5.20;;;2.03;;
38843;SDS011;24596;48.080;8.362;2022-11-20T02:47:01;3.13;;;1.67;;
38843;SDS011;24596;48.080;8.362;2022-11-20T02:49:26;3.92;;;1.88;;
38843;SDS011;24596;48.080;8.362;2022-11-20T02:51:51;5.25;;;2.00;;
38843;SDS011;24596;48.080;8.362;2022-11-20T02:54:17;4.72;;;2.45;;
38843;SDS011;24596;48.080;8.362;2022-11-20T02:56:42;10.05;;;2.60;;
38843;SDS011;24596;48.080;8.362;2022-11-20T02:59:08;6.22;;;2.58;;
38843;SDS011;24596;48.080;8.362;2022-11-20T03:01:33;6.45;;;2.60;;
38843;SDS011;24596;48.080;8.362;2022-11-20T03:03:58;6.60;;;2.50;;
38843;SDS011;24596;48.080;8.362;2022-11-20T03:06:24;6.18;;;2.38;;
38843;SDS011;24596;48.080;8.362;2022-11-20T03:08:49;5.00;;;2.28;;
38843;SDS011;24596;48.080;8.362;2022-11-20T03:11:14;5.60;;;1.90;;
38843;SDS011;24596;48.080;8.362;2022-11-20T03:13:39;4.82;;;2.22;;
38843;SDS011;24596;48.080;8.362;2022-11-20T03:16:08;4.38;;;1.80;;
38843;SDS011;24596;48.080;8.362;2022-11-20T03:18:37;10.80;;;4.32;;
38843;SDS011;24596;48.080;8.362;2022-11-20T03:21:02;4.25;;;2.30;;
38843;SDS011;24596;48.080;8.362;2022-11-20T03:23:29;4.97;;;1.73;;
38843;SDS011;24596;48.080;8.362;2022-11-20T03:25:54;5.55;;;1.80;;
38843;SDS011;24596;48.080;8.362;2022-11-20T03:28:19;2.95;;;1.50;;
38843;SDS011;24596;48.080;8.362;2022-11-20T03:30:45;3.90;;;1.67;;
38843;SDS011;24596;48.080;8.362;2022-11-20T03:33:10;6.25;;;1.70;;
38843;SDS011;24596;48.080;8.362;2022-11-20T03:35:35;3.97;;;1.67;;
38843;SDS011;24596;48.080;8.362;2022-11-20T03:38:00;4.40;;;1.77;;
38843;SDS011;24596;48.080;8.362;2022-11-20T03:40:25;5.47;;;1.83;;
38843;SDS011;24596;48.080;8.362;2022-11-20T03:42:50;5.40;;;2.00;;
38843;SDS011;24596;48.080;8.362;2022-11-20T03:45:16;3.22;;;1.60;;
38843;SDS011;24596;48.080;8.362;2022-11-20T03:47:42;4.50;;;1.60;;
38843;SDS011;24596;48.080;8.362;2022-11-20T03:50:08;5.18;;;1.80;;
38843;SDS011;24596;48.080;8.362;2022-11-20T03:52:33;9.02;;;1.90;;
38843;SDS011;24596;48.080;8.362;2022-11-20T03:54:58;3.70;;;1.58;;
38843;SDS011;24596;48.080;8.362;2022-11-20T03:57:23;5.20;;;1.65;;
38843;SDS011;24596;48.080;8.362;2022-11-20T03:59:49;6.75;;;1.73;;
38843;SDS011;24596;48.080;8.362;2022-11-20T04:02:14;9.38;;;2.53;;
38843;SDS011;24596;48.080;8.362;2022-11-20T04:04:39;4.22;;;1.80;;
38843;SDS011;24596;48.080;8.362;2022-11-20T04:07:04;4.60;;;2.13;;
38843;SDS011;24596;48.080;8.362;2022-11-20T04:09:29;3.75;;;1.83;;
38843;SDS011;24596;48.080;8.362;2022-11-20T04:11:55;5.97;;;1.65;;
38843;SDS011;24596;48.080;8.362;2022-11-20T04:14:20;3.67;;;2.00;;
38843;SDS011;24596;48.080;8.362;2022-11-20T04:16:45;5.20;;;2.20;;
38843;SDS011;24596;48.080;8.362;2022-11-20T04:19:11;3.55;;;1.73;;
38843;SDS011;24596;48.080;8.362;2022-11-20T04:21:37;7.47;;;2.00;;
38843;SDS011;24596;48.080;8.362;2022-11-20T04:24:02;5.18;;;2.33;;
38843;SDS011;24596;48.080;8.362;2022-11-20T04:26:28;4.45;;;2.00;;
38843;SDS011;24596;48.080;8.362;2022-11-20T04:28:53;5.80;;;2.13;;
38843;SDS011;24596;48.080;8.362;2022-11-20T04:31:20;4.65;;;2.17;;
38843;SDS011;24596;48.080;8.362;2022-11-20T04:33:45;7.90;;;2.38;;
38843;SDS011;24596;48.080;8.362;2022-11-20T04:36:12;4.43;;;1.95;;
38843;SDS011;24596;48.080;8.362;2022-11-20T04:38:38;5.68;;;2.25;;
38843;SDS011;24596;48.080;8.362;2022-11-20T04:41:04;4.65;;;2.13;;
38843;SDS011;24596;48.080;8.362;2022-11-20T04:43:29;5.07;;;2.30;;
38843;SDS011;24596;48.080;8.362;2022-11-20T04:45:55;6.43;;;2.53;;
38843;SDS011;24596;48.080;8.362;2022-11-20T04:48:21;5.22;;;2.75;;
38843;SDS011;24596;48.080;8.362;2022-11-20T04:50:46;8.10;;;3.58;;
38843;SDS011;24596;48.080;8.362;2022-11-20T04:53:12;6.72;;;4.00;;
38843;SDS011;24596;48.080;8.362;2022-11-20T04:55:37;4.82;;;2.47;;
38843;SDS011;24596;48.080;8.362;2022-11-20T04:58:02;4.43;;;1.90;;
38843;SDS011;24596;48.080;8.362;2022-11-20T05:00:27;5.13;;;1.90;;
38843;SDS011;24596;48.080;8.362;2022-11-20T05:02:52;6.82;;;1.90;;
38843;SDS011;24596;48.080;8.362;2022-11-20T05:05:18;4.25;;;2.00;;
38843;SDS011;24596;48.080;8.362;2022-11-20T05:07:43;4.40;;;2.05;;
38843;SDS011;24596;48.080;8.362;2022-11-20T05:10:08;3.17;;;1.67;;
38843;SDS011;24596;48.080;8.362;2022-11-20T05:12:33;7.90;;;2.20;;
38843;SDS011;24596;48.080;8.362;2022-11-20T05:14:58;4.00;;;1.70;;
38843;SDS011;24596;48.080;8.362;2022-11-20T05:17:24;3.47;;;1.58;;
38843;SDS011;24596;48.080;8.362;2022-11-20T05:19:49;2.70;;;1.48;;
38843;SDS011;24596;48.080;8.362;2022-11-20T05:22:14;5.45;;;1.73;;
38843;SDS011;24596;48.080;8.362;2022-11-20T05:24:39;5.15;;;1.63;;
38843;SDS011;24596;48.080;8.362;2022-11-20T05:27:04;4.68;;;2.35;;
38843;SDS011;24596;48.080;8.362;2022-11-20T05:29:30;4.10;;;2.10;;
38843;SDS011;24596;48.080;8.362;2022-11-20T05:31:55;5.43;;;2.05;;
38843;SDS011;24596;48.080;8.362;2022-11-20T05:34:20;4.38;;;1.65;;
38843;SDS011;24596;48.080;8.362;2022-11-20T05:36:45;3.55;;;1.52;;
38843;SDS011;24596;48.080;8.362;2022-11-20T05:39:10;3.08;;;1.40;;
38843;SDS011;24596;48.080;8.362;2022-11-20T05:41:36;3.15;;;1.52;;
38843;SDS011;24596;48.080;8.362;2022-11-20T05:44:01;2.88;;;1.23;;
38843;SDS011;24596;48.080;8.362;2022-11-20T05:46:26;2.78;;;1.58;;
38843;SDS011;24596;48.080;8.362;2022-11-20T05:48:51;2.55;;;1.23;;
38843;SDS011;24596;48.080;8.362;2022-11-20T05:51:17;1.98;;;1.00;;
38843;SDS011;24596;48.080;8.362;2022-11-20T05:53:42;2.67;;;1.15;;
38843;SDS011;24596;48.080;8.362;2022-11-20T05:56:15;1.95;;;1.10;;
38843;SDS011;24596;48.080;8.362;2022-11-20T06:01:19;2.92;;;1.50;;
38843;SDS011;24596;48.080;8.362;2022-11-20T06:03:45;3.30;;;1.38;;
38843;SDS011;24596;48.080;8.362;2022-11-20T06:06:12;4.75;;;1.90;;
38843;SDS011;24596;48.080;8.362;2022-11-20T06:08:38;3.40;;;1.73;;
38843;SDS011;24596;48.080;8.362;2022-11-20T06:11:04;3.67;;;1.80;;
38843;SDS011;24596;48.080;8.362;2022-11-20T06:13:29;4.32;;;1.92;;
38843;SDS011;24596;48.080;8.362;2022-11-20T06:15:55;4.05;;;1.48;;
38843;SDS011;24596;48.080;8.362;2022-11-20T06:18:20;2.58;;;1.25;;
38843;SDS011;24596;48.080;8.362;2022-11-20T06:20:45;3.70;;;1.90;;
38843;SDS011;24596;48.080;8.362;2022-11-20T06:23:11;3.67;;;1.52;;
38843;SDS011;24596;48.080;8.362;2022-11-20T06:25:40;5.20;;;1.85;;
38843;SDS011;24596;48.080;8.362;2022-11-20T06:28:05;2.83;;;1.10;;
38843;SDS011;24596;48.080;8.362;2022-11-20T06:30:30;3.13;;;1.50;;
38843;SDS011;24596;48.080;8.362;2022-11-20T06:32:55;3.97;;;1.00;;
38843;SDS011;24596;48.080;8.362;2022-11-20T06:35:21;2.65;;;1.25;;
38843;SDS011;24596;48.080;8.362;2022-11-20T06:37:46;1.92;;;1.30;;
38843;SDS011;24596;48.080;8.362;2022-11-20T06:40:11;3.15;;;1.45;;
38843;SDS011;24596;48.080;8.362;2022-11-20T06:42:36;2.92;;;1.33;;
38843;SDS011;24596;48.080;8.362;2022-11-20T06:45:02;1.80;;;0.90;;
38843;SDS011;24596;48.080;8.362;2022-11-20T06:47:27;3.33;;;1.23;;
38843;SDS011;24596;48.080;8.362;2022-11-20T06:49:52;2.63;;;1.13;;
38843;SDS011;24596;48.080;8.362;2022-11-20T06:52:17;3.95;;;1.30;;
38843;SDS011;24596;48.080;8.362;2022-11-20T06:54:42;5.07;;;2.42;;
38843;SDS011;24596;48.080;8.362;2022-11-20T06:57:08;2.95;;;1.33;;
38843;SDS011;24596;48.080;8.362;2022-11-20T06:59:33;4.65;;;1.20;;
38843;SDS011;24596;48.080;8.362;2022-11-20T07:01:58;1.42;;;0.82;;
38843;SDS011;24596;48.080;8.362;2022-11-20T07:04:23;3.80;;;1.58;;
38843;SDS011;24596;48.080;8.362;2022-11-20T07:06:49;2.55;;;1.33;;
38843;SDS011;24596;48.080;8.362;2022-11-20T07:09:14;2.38;;;1.17;;
38843;SDS011;24596;48.080;8.362;2022-11-20T07:11:39;2.03;;;1.10;;
38843;SDS011;24596;48.080;8.362;2022-11-20T07:14:04;2.00;;;0.93;;
38843;SDS011;24596;48.080;8.362;2022-11-20T07:16:30;1.55;;;0.80;;
38843;SDS011;24596;48.080;8.362;2022-11-20T07:18:55;1.50;;;0.80;;
38843;SDS011;24596;48.080;8.362;2022-11-20T07:21:20;1.35;;;0.80;;
38843;SDS011;24596;48.080;8.362;2022-11-20T07:23:45;1.10;;;0.70;;
38843;SDS011;24596;48.080;8.362;2022-11-20T07:26:11;1.45;;;0.70;;
38843;SDS011;24596;48.080;8.362;2022-11-20T07:28:36;0.88;;;0.60;;
38843;SDS011;24596;48.080;8.362;2022-11-20T07:31:02;1.23;;;0.70;;
38843;SDS011;24596;48.080;8.362;2022-11-20T07:33:27;1.70;;;0.75;;
38843;SDS011;24596;48.080;8.362;2022-11-20T07:35:52;1.73;;;0.80;;
38843;SDS011;24596;48.080;8.362;2022-11-20T07:38:18;2.92;;;1.35;;
38843;SDS011;24596;48.080;8.362;2022-11-20T07:40:43;3.47;;;1.20;;
38843;SDS011;24596;48.080;8.362;2022-11-20T07:43:08;4.65;;;1.80;;
38843;SDS011;24596;48.080;8.362;2022-11-20T07:45:34;5.78;;;2.42;;
38843;SDS011;24596;48.080;8.362;2022-11-20T07:47:59;1.92;;;0.88;;
38843;SDS011;24596;48.080;8.362;2022-11-20T07:50:24;4.97;;;1.60;;
38843;SDS011;24596;48.080;8.362;2022-11-20T07:52:49;2.65;;;1.17;;
38843;SDS011;24596;48.080;8.362;2022-11-20T07:55:14;3.58;;;1.65;;
38843;SDS011;24596;48.080;8.362;2022-11-20T07:57:40;1.73;;;1.08;;
38843;SDS011;24596;48.080;8.362;2022-11-20T08:00:05;5.07;;;2.55;;
38843;SDS011;24596;48.080;8.362;2022-11-20T08:02:32;5.13;;;2.90;;
38843;SDS011;24596;48.080;8.362;2022-11-20T08:04:57;6.22;;;3.25;;
38843;SDS011;24596;48.080;8.362;2022-11-20T08:07:22;5.00;;;2.03;;
38843;SDS011;24596;48.080;8.362;2022-11-20T08:09:47;4.40;;;2.22;;
38843;SDS011;24596;48.080;8.362;2022-11-20T08:12:19;3.20;;;1.30;;
38843;SDS011;24596;48.080;8.362;2022-11-20T08:15:03;3.10;;;1.23;;
38843;SDS011;24596;48.080;8.362;2022-11-20T08:17:29;2.70;;;1.40;;
38843;SDS011;24596;48.080;8.362;2022-11-20T08:19:54;3.25;;;1.20;;
38843;SDS011;24596;48.080;8.362;2022-11-20T08:22:19;1.58;;;0.88;;
38843;SDS011;24596;48.080;8.362;2022-11-20T08:24:45;2.95;;;1.17;;
38843;SDS011;24596;48.080;8.362;2022-11-20T08:27:10;4.35;;;1.20;;
38843;SDS011;24596;48.080;8.362;2022-11-20T08:29:36;1.90;;;0.98;;
38843;SDS011;24596;48.080;8.362;2022-11-20T08:32:01;2.35;;;1.20;;
38843;SDS011;24596;48.080;8.362;2022-11-20T08:34:26;1.58;;;0.88;;
38843;SDS011;24596;48.080;8.362;2022-11-20T08:36:51;1.85;;;1.00;;
38843;SDS011;24596;48.080;8.362;2022-11-20T08:39:16;1.52;;;0.90;;
38843;SDS011;24596;48.080;8.362;2022-11-20T08:41:42;2.80;;;1.00;;
38843;SDS011;24596;48.080;8.362;2022-11-20T08:44:07;1.58;;;0.82;;
38843;SDS011;24596;48.080;8.362;2022-11-20T08:46:36;2.38;;;1.50;;
38843;SDS011;24596;48.080;8.362;2022-11-20T08:49:02;1.00;;;0.68;;
38843;SDS011;24596;48.080;8.362;2022-11-20T08:51:28;0.95;;;0.77;;
38843;SDS011;24596;48.080;8.362;2022-11-20T08:53:53;1.05;;;0.50;;
38843;SDS011;24596;48.080;8.362;2022-11-20T08:56:18;1.58;;;0.80;;
38843;SDS011;24596;48.080;8.362;2022-11-20T08:58:44;4.22;;;1.45;;
38843;SDS011;24596;48.080;8.362;2022-11-20T09:01:09;1.13;;;0.60;;
38843;SDS011;24596;48.080;8.362;2022-11-20T09:03:35;0.88;;;0.70;;
38843;SDS011;24596;48.080;8.362;2022-11-20T09:06:01;1.48;;;0.60;;
38843;SDS011;24596;48.080;8.362;2022-11-20T09:08:26;1.90;;;0.90;;
38843;SDS011;24596;48.080;8.362;2022-11-20T09:10:52;1.40;;;0.85;;
38843;SDS011;24596;48.080;8.362;2022-11-20T09:13:18;0.90;;;0.60;;
38843;SDS011;24596;48.080;8.362;2022-11-20T09:15:43;2.10;;;0.80;;
38843;SDS011;24596;48.080;8.362;2022-11-20T09:18:08;1.52;;;0.80;;
38843;SDS011;24596;48.080;8.362;2022-11-20T09:20:33;0.55;;;0.50;;
38843;SDS011;24596;48.080;8.362;2022-11-20T09:22:59;1.25;;;0.60;;
38843;SDS011;24596;48.080;8.362;2022-11-20T09:25:24;1.17;;;0.70;;
38843;SDS011;24596;48.080;8.362;2022-11-20T09:27:56;1.85;;;0.70;;
38843;SDS011;24596;48.080;8.362;2022-11-20T09:30:24;1.33;;;0.60;;
38843;SDS011;24596;48.080;8.362;2022-11-20T09:32:50;1.50;;;0.80;;
38843;SDS011;24596;48.080;8.362;2022-11-20T09:35:15;2.42;;;1.27;;
38843;SDS011;24596;48.080;8.362;2022-11-20T09:37:41;1.27;;;0.95;;
38843;SDS011;24596;48.080;8.362;2022-11-20T09:40:06;1.50;;;0.73;;
38843;SDS011;24596;48.080;8.362;2022-11-20T09:42:45;1.23;;;0.75;;
38843;SDS011;24596;48.080;8.362;2022-11-20T09:47:42;3.90;;;1.23;;
38843;SDS011;24596;48.080;8.362;2022-11-20T09:50:15;1.25;;;0.80;;
38843;SDS011;24596;48.080;8.362;2022-11-20T09:55:10;1.67;;;0.82;;
38843;SDS011;24596;48.080;8.362;2022-11-20T09:57:37;3.50;;;2.05;;
38843;SDS011;24596;48.080;8.362;2022-11-20T10:00:05;4.97;;;2.00;;
38843;SDS011;24596;48.080;8.362;2022-11-20T10:02:37;2.13;;;1.10;;
38843;SDS011;24596;48.080;8.362;2022-11-20T10:07:36;2.13;;;1.08;;
38843;SDS011;24596;48.080;8.362;2022-11-20T10:10:02;5.78;;;1.25;;
38843;SDS011;24596;48.080;8.362;2022-11-20T10:12:32;4.50;;;1.10;;
38843;SDS011;24596;48.080;8.362;2022-11-20T10:15:01;2.00;;;1.02;;
38843;SDS011;24596;48.080;8.362;2022-11-20T10:25:22;4.53;;;1.48;;
38843;SDS011;24596;48.080;8.362;2022-11-20T10:30:29;3.47;;;1.05;;
38843;SDS011;24596;48.080;8.362;2022-11-20T10:32:57;3.28;;;1.10;;
38843;SDS011;24596;48.080;8.362;2022-11-20T10:35:31;3.17;;;1.40;;
38843;SDS011;24596;48.080;8.362;2022-11-20T10:38:00;5.20;;;1.42;;
38843;SDS011;24596;48.080;8.362;2022-11-20T10:40:28;5.20;;;1.67;;
38843;SDS011;24596;48.080;8.362;2022-11-20T10:42:57;6.80;;;1.60;;
38843;SDS011;24596;48.080;8.362;2022-11-20T10:47:49;5.25;;;1.40;;
38843;SDS011;24596;48.080;8.362;2022-11-20T10:50:16;3.45;;;1.33;;
38843;SDS011;24596;48.080;8.362;2022-11-20T10:52:52;2.42;;;1.08;;
38843;SDS011;24596;48.080;8.362;2022-11-20T10:55:30;2.67;;;1.23;;
38843;SDS011;24596;48.080;8.362;2022-11-20T10:58:04;2.75;;;0.90;;
38843;SDS011;24596;48.080;8.362;2022-11-20T11:00:34;4.47;;;1.70;;
38843;SDS011;24596;48.080;8.362;2022-11-20T11:03:00;7.35;;;1.65;;
38843;SDS011;24596;48.080;8.362;2022-11-20T11:05:41;5.45;;;1.25;;
38843;SDS011;24596;48.080;8.362;2022-11-20T11:08:12;3.95;;;1.48;;
38843;SDS011;24596;48.080;8.362;2022-11-20T11:13:07;2.67;;;1.10;;
38843;SDS011;24596;48.080;8.362;2022-11-20T11:15:39;6.72;;;1.52;;
38843;SDS011;24596;48.080;8.362;2022-11-20T11:18:06;2.97;;;1.20;;
38843;SDS011;24596;48.080;8.362;2022-11-20T11:20:33;5.30;;;1.40;;
38843;SDS011;24596;48.080;8.362;2022-11-20T11:22:59;4.93;;;1.65;;
38843;SDS011;24596;48.080;8.362;2022-11-20T11:27:53;1.98;;;1.10;;
38843;SDS011;24596;48.080;8.362;2022-11-20T11:30:20;6.30;;;1.20;;
38843;SDS011;24596;48.080;8.362;2022-11-20T11:32:46;1.58;;;1.00;;
38843;SDS011;24596;48.080;8.362;2022-11-20T11:35:45;2.97;;;1.20;;
38843;SDS011;24596;48.080;8.362;2022-11-20T11:38:04;3.35;;;1.20;;
38843;SDS011;24596;48.080;8.362;2022-11-20T11:40:31;2.70;;;1.00;;
38843;SDS011;24596;48.080;8.362;2022-11-20T11:42:57;6.32;;;1.88;;
38843;SDS011;24596;48.080;8.362;2022-11-20T11:45:23;5.60;;;2.50;;
38843;SDS011;24596;48.080;8.362;2022-11-20T11:47:48;5.18;;;1.77;;
38843;SDS011;24596;48.080;8.362;2022-11-20T11:50:28;5.82;;;1.70;;
38843;SDS011;24596;48.080;8.362;2022-11-20T11:53:13;3.53;;;1.20;;
38843;SDS011;24596;48.080;8.362;2022-11-20T11:58:28;3.17;;;0.80;;
38843;SDS011;24596;48.080;8.362;2022-11-20T12:01:02;1.90;;;0.90;;
38843;SDS011;24596;48.080;8.362;2022-11-20T12:03:30;4.28;;;1.67;;
38843;SDS011;24596;48.080;8.362;2022-11-20T12:06:05;2.67;;;1.08;;
38843;SDS011;24596;48.080;8.362;2022-11-20T12:08:32;2.45;;;1.00;;
38843;SDS011;24596;48.080;8.362;2022-11-20T12:16:13;3.00;;;1.10;;
38843;SDS011;24596;48.080;8.362;2022-11-20T12:18:39;1.30;;;0.80;;
38843;SDS011;24596;48.080;8.362;2022-11-20T12:26:17;2.17;;;0.82;;
38843;SDS011;24596;48.080;8.362;2022-11-20T12:28:47;1.95;;;0.90;;
38843;SDS011;24596;48.080;8.362;2022-11-20T12:33:48;1.50;;;0.90;;
38843;SDS011;24596;48.080;8.362;2022-11-20T12:47:14;1.52;;;0.80;;
38843;SDS011;24596;48.080;8.362;2022-11-20T12:49:46;4.88;;;1.48;;
38843;SDS011;24596;48.080;8.362;2022-11-20T12:52:17;2.60;;;0.93;;
38843;SDS011;24596;48.080;8.362;2022-11-20T12:54:49;2.55;;;0.98;;
38843;SDS011;24596;48.080;8.362;2022-11-20T13:02:19;2.35;;;1.20;;
38843;SDS011;24596;48.080;8.362;2022-11-20T13:07:31;1.48;;;0.88;;
38843;SDS011;24596;48.080;8.362;2022-11-20T13:10:01;3.50;;;1.40;;
38843;SDS011;24596;48.080;8.362;2022-11-20T13:15:35;2.50;;;0.90;;
38843;SDS011;24596;48.080;8.362;2022-11-20T13:18:07;5.82;;;1.20;;
38843;SDS011;24596;48.080;8.362;2022-11-20T13:20:36;5.05;;;1.33;;
38843;SDS011;24596;48.080;8.362;2022-11-20T13:23:05;3.80;;;1.20;;
38843;SDS011;24596;48.080;8.362;2022-11-20T13:25:31;3.55;;;1.25;;
38843;SDS011;24596;48.080;8.362;2022-11-20T13:27:58;3.03;;;1.27;;
38843;SDS011;24596;48.080;8.362;2022-11-20T13:30:27;4.90;;;1.30;;
38843;SDS011;24596;48.080;8.362;2022-11-20T13:32:56;3.85;;;1.30;;
38843;SDS011;24596;48.080;8.362;2022-11-20T13:35:26;4.22;;;1.48;;
38843;SDS011;24596;48.080;8.362;2022-11-20T13:40:33;6.38;;;1.33;;
38843;SDS011;24596;48.080;8.362;2022-11-20T13:43:11;5.78;;;1.80;;
38843;SDS011;24596;48.080;8.362;2022-11-20T13:45:39;4.07;;;1.50;;
38843;SDS011;24596;48.080;8.362;2022-11-20T13:48:15;6.07;;;1.75;;
38843;SDS011;24596;48.080;8.362;2022-11-20T13:50:46;3.05;;;1.45;;
38843;SDS011;24596;48.080;8.362;2022-11-20T14:01:15;4.18;;;1.35;;
38843;SDS011;24596;48.080;8.362;2022-11-20T14:03:39;7.05;;;1.52;;
38843;SDS011;24596;48.080;8.362;2022-11-20T14:06:10;4.03;;;1.65;;
38843;SDS011;24596;48.080;8.362;2022-11-20T14:08:39;5.35;;;2.15;;
38843;SDS011;24596;48.080;8.362;2022-11-20T14:13:50;6.65;;;2.67;;
38843;SDS011;24596;48.080;8.362;2022-11-20T14:16:19;6.90;;;2.08;;
38843;SDS011;24596;48.080;8.362;2022-11-20T14:18:44;5.57;;;2.38;;
38843;SDS011;24596;48.080;8.362;2022-11-20T14:21:09;5.97;;;2.33;;
38843;SDS011;24596;48.080;8.362;2022-11-20T14:23:35;5.28;;;2.17;;
38843;SDS011;24596;48.080;8.362;2022-11-20T14:26:00;9.27;;;2.03;;
38843;SDS011;24596;48.080;8.362;2022-11-20T14:28:29;4.35;;;1.38;;
38843;SDS011;24596;48.080;8.362;2022-11-20T14:30:55;4.22;;;1.65;;
38843;SDS011;24596;48.080;8.362;2022-11-20T14:33:21;2.97;;;1.40;;
38843;SDS011;24596;48.080;8.362;2022-11-20T14:35:54;3.63;;;1.58;;
38843;SDS011;24596;48.080;8.362;2022-11-20T14:38:22;4.20;;;1.35;;
38843;SDS011;24596;48.080;8.362;2022-11-20T14:40:48;4.85;;;1.42;;
38843;SDS011;24596;48.080;8.362;2022-11-20T14:45:42;6.75;;;3.10;;
38843;SDS011;24596;48.080;8.362;2022-11-20T14:48:08;4.18;;;1.50;;
38843;SDS011;24596;48.080;8.362;2022-11-20T14:50:34;2.38;;;1.00;;
38843;SDS011;24596;48.080;8.362;2022-11-20T14:53:00;4.50;;;1.30;;
38843;SDS011;24596;48.080;8.362;2022-11-20T14:55:26;5.60;;;1.30;;
38843;SDS011;24596;48.080;8.362;2022-11-20T14:57:55;4.47;;;1.10;;
38843;SDS011;24596;48.080;8.362;2022-11-20T15:00:24;3.40;;;1.30;;
38843;SDS011;24596;48.080;8.362;2022-11-20T15:02:50;3.42;;;1.40;;
38843;SDS011;24596;48.080;8.362;2022-11-20T15:05:17;4.88;;;1.38;;
38843;SDS011;24596;48.080;8.362;2022-11-20T15:07:46;3.13;;;1.20;;
38843;SDS011;24596;48.080;8.362;2022-11-20T15:10:18;3.92;;;1.35;;
38843;SDS011;24596;48.080;8.362;2022-11-20T15:12:50;3.38;;;1.30;;
38843;SDS011;24596;48.080;8.362;2022-11-20T15:17:47;5.32;;;1.48;;
38843;SDS011;24596;48.080;8.362;2022-11-20T15:20:13;12.77;;;5.82;;
38843;SDS011;24596;48.080;8.362;2022-11-20T15:22:39;6.45;;;2.92;;
38843;SDS011;24596;48.080;8.362;2022-11-20T15:25:11;4.65;;;1.70;;
38843;SDS011;24596;48.080;8.362;2022-11-20T15:30:04;4.68;;;1.83;;
38843;SDS011;24596;48.080;8.362;2022-11-20T15:32:33;5.60;;;1.80;;
38843;SDS011;24596;48.080;8.362;2022-11-20T15:34:58;8.02;;;1.88;;
38843;SDS011;24596;48.080;8.362;2022-11-20T15:37:26;4.95;;;2.05;;
38843;SDS011;24596;48.080;8.362;2022-11-20T15:39:51;5.30;;;1.88;;
38843;SDS011;24596;48.080;8.362;2022-11-20T15:42:17;8.05;;;2.03;;
38843;SDS011;24596;48.080;8.362;2022-11-20T15:44:42;3.35;;;1.02;;
38843;SDS011;24596;48.080;8.362;2022-11-20T15:47:07;3.75;;;1.27;;
38843;SDS011;24596;48.080;8.362;2022-11-20T15:49:34;4.22;;;1.67;;
38843;SDS011;24596;48.080;8.362;2022-11-20T15:52:00;3.53;;;1.13;;
38843;SDS011;24596;48.080;8.362;2022-11-20T15:54:25;5.28;;;1.50;;
38843;SDS011;24596;48.080;8.362;2022-11-20T15:56:50;4.72;;;1.50;;
38843;SDS011;24596;48.080;8.362;2022-11-20T15:59:18;6.40;;;1.90;;
38843;SDS011;24596;48.080;8.362;2022-11-20T16:01:43;4.60;;;1.60;;
38843;SDS011;24596;48.080;8.362;2022-11-20T16:04:12;2.75;;;1.25;;
38843;SDS011;24596;48.080;8.362;2022-11-20T16:06:38;6.63;;;1.30;;
38843;SDS011;24596;48.080;8.362;2022-11-20T16:09:03;8.02;;;1.67;;
38843;SDS011;24596;48.080;8.362;2022-11-20T16:11:29;2.60;;;1.40;;
38843;SDS011;24596;48.080;8.362;2022-11-20T16:13:54;4.07;;;1.55;;
38843;SDS011;24596;48.080;8.362;2022-11-20T16:16:38;4.88;;;1.70;;
38843;SDS011;24596;48.080;8.362;2022-11-20T16:19:08;5.70;;;1.63;;